createdAt,value
2019-06-15T00:00:59.342Z,62.52
2019-06-15T00:03:29.491Z,62.49
2019-06-15T00:05:59.596Z,62.51
2019-06-15T00:08:29.730Z,62.80
2019-06-15T00:10:59.854Z,62.83
2019-06-15T00:13:29.975Z,62.78
2019-06-15T00:16:00.112Z,62.80
2019-06-15T00:18:30.237Z,62.76
2019-06-15T00:21:00.351Z,62.75
2019-06-15T00:23:30.488Z,62.79
2019-06-15T00:26:00.608Z,62.83
2019-06-15T00:28:30.736Z,62.89
2019-06-15T00:31:00.848Z,62.94
2019-06-15T00:33:30.976Z,63.47
2019-06-15T00:36:01.091Z,63.41
2019-06-15T00:38:31.322Z,63.44
2019-06-15T00:41:01.445Z,63.37
2019-06-15T00:43:31.560Z,63.51
2019-06-15T00:46:01.697Z,63.40
2019-06-15T00:48:31.824Z,63.38
2019-06-15T00:51:01.939Z,63.76
2019-06-15T00:53:32.141Z,63.81
2019-06-15T00:56:02.280Z,63.75
2019-06-15T00:58:32.409Z,63.85
2019-06-15T01:01:02.547Z,63.78
2019-06-15T01:03:32.676Z,63.87
2019-06-15T01:06:02.803Z,64.03
2019-06-15T01:08:32.935Z,64.29
2019-06-15T01:11:03.359Z,64.58
2019-06-15T01:13:33.595Z,65.01
2019-06-15T01:16:03.713Z,65.02
2019-06-15T01:18:33.855Z,65.07
2019-06-15T01:21:04.169Z,65.12
2019-06-15T01:23:34.358Z,65.42
2019-06-15T01:26:04.480Z,65.16
2019-06-15T01:28:34.642Z,65.01
2019-06-15T01:31:04.760Z,65.17
2019-06-15T01:33:35.155Z,65.71
2019-06-15T01:36:05.488Z,65.15
2019-06-15T01:38:35.896Z,65.19
2019-06-15T01:41:06.036Z,65.42
2019-06-15T01:43:36.166Z,65.76
2019-06-15T01:46:06.349Z,65.86
2019-06-15T01:48:36.487Z,65.43
2019-06-15T01:51:06.602Z,64.96
2019-06-15T01:53:36.845Z,65.15
2019-06-15T01:56:06.978Z,65.68
2019-06-15T01:58:37.108Z,65.95
2019-06-15T02:01:07.230Z,66.02
2019-06-15T02:03:37.350Z,66.16
2019-06-15T02:06:07.488Z,66.22
2019-06-15T02:08:37.619Z,66.28
2019-06-15T02:11:07.749Z,65.93
2019-06-15T02:13:37.902Z,65.67
2019-06-15T02:16:08.217Z,65.40
2019-06-15T02:18:38.337Z,65.83
2019-06-15T02:21:09.536Z,66.05
2019-06-15T02:23:39.748Z,66.12
2019-06-15T02:26:09.943Z,66.20
2019-06-15T02:28:40.075Z,66.32
2019-06-15T02:31:10.204Z,66.17
2019-06-15T02:33:40.323Z,66.27
2019-06-15T02:36:10.447Z,66.45
2019-06-15T02:38:40.695Z,66.35
2019-06-15T02:41:11.129Z,65.78
2019-06-15T02:43:41.376Z,65.59
2019-06-15T02:46:11.753Z,65.79
2019-06-15T02:48:41.885Z,66.10
2019-06-15T02:51:12.009Z,66.49
2019-06-15T02:53:45.331Z,66.48
2019-06-15T02:56:14.097Z,66.51
2019-06-15T02:58:44.274Z,66.20
2019-06-15T03:01:14.488Z,66.35
2019-06-15T03:03:44.679Z,66.58
2019-06-15T03:06:14.815Z,66.95
2019-06-15T03:08:45.687Z,67.22
2019-06-15T03:11:15.811Z,67.13
2019-06-15T03:13:46.072Z,67.20
2019-06-15T03:16:16.191Z,67.25
2019-06-15T03:18:46.325Z,66.75
2019-06-15T03:21:16.447Z,66.55
2019-06-15T03:23:46.573Z,66.33
2019-06-15T03:26:17.773Z,66.58
2019-06-15T03:28:47.944Z,66.62
2019-06-15T03:31:18.063Z,66.53
2019-06-15T03:33:48.257Z,66.16
2019-06-15T03:36:18.383Z,65.77
2019-06-15T03:38:48.606Z,65.72
2019-06-15T03:41:18.732Z,66.01
2019-06-15T03:43:48.862Z,65.89
2019-06-15T03:46:19.047Z,65.94
2019-06-15T03:48:49.174Z,67.26
2019-06-15T03:51:19.308Z,67.45
2019-06-15T03:53:49.488Z,67.41
2019-06-15T03:56:21.941Z,67.65
2019-06-15T03:58:51.455Z,67.84
2019-06-15T04:01:30.379Z,67.96
2019-06-15T04:04:00.498Z,67.83
2019-06-15T04:06:31.781Z,67.68
2019-06-15T04:09:01.922Z,67.10
2019-06-15T04:11:33.312Z,65.89
2019-06-15T04:14:03.522Z,64.71
2019-06-15T04:16:35.439Z,64.44
2019-06-15T04:19:05.732Z,64.74
2019-06-15T04:21:35.856Z,65.21
2019-06-15T04:24:05.981Z,65.40
2019-06-15T04:26:36.652Z,65.93
2019-06-15T04:29:06.996Z,66.43
2019-06-15T04:31:39.957Z,66.41
2019-06-15T04:34:08.937Z,66.23
2019-06-15T04:36:39.418Z,66.71
2019-06-15T04:39:09.574Z,67.05
2019-06-15T04:41:39.689Z,66.93
2019-06-15T04:44:09.824Z,66.65
2019-06-15T04:46:39.948Z,66.46
2019-06-15T04:49:10.095Z,66.30
2019-06-15T04:51:40.227Z,65.89
2019-06-15T04:54:10.359Z,66.65
2019-06-15T04:56:50.489Z,66.47
2019-06-15T04:59:12.345Z,65.57
2019-06-15T05:01:42.459Z,62.80
2019-06-15T05:04:12.616Z,61.72
2019-06-15T05:06:43.700Z,60.45
2019-06-15T05:09:13.815Z,60.12
2019-06-15T05:11:43.941Z,58.54
2019-06-15T05:14:14.067Z,57.30
2019-06-15T05:16:44.273Z,56.83
2019-06-15T05:19:14.403Z,55.81
2019-06-15T05:21:44.548Z,55.10
2019-06-15T05:24:14.668Z,53.06
2019-06-15T05:26:44.829Z,51.63
2019-06-15T05:29:14.967Z,51.32
2019-06-15T05:31:45.124Z,50.10
2019-06-15T05:34:15.348Z,49.77
2019-06-15T05:36:45.493Z,49.49
2019-06-15T05:39:16.607Z,49.13
2019-06-15T05:41:46.864Z,48.99
2019-06-15T05:44:17.015Z,49.21
2019-06-15T05:46:47.183Z,49.15
2019-06-15T05:49:17.359Z,49.13
2019-06-15T05:51:47.528Z,49.38
2019-06-15T05:54:17.656Z,49.27
2019-06-15T05:56:47.806Z,49.27
2019-06-15T05:59:17.947Z,49.84
2019-06-15T06:01:48.099Z,49.34
2019-06-15T06:04:18.275Z,49.60
2019-06-15T06:06:48.408Z,49.43
2019-06-15T06:09:18.671Z,49.10
2019-06-15T06:11:48.787Z,48.52
2019-06-15T06:14:18.931Z,47.90
2019-06-15T06:16:49.065Z,47.53
2019-06-15T06:19:19.240Z,46.66
2019-06-15T06:21:49.462Z,46.45
2019-06-15T06:24:20.404Z,46.61
2019-06-15T06:26:50.550Z,46.40
2019-06-15T06:29:20.698Z,46.26
2019-06-15T06:31:51.555Z,46.33
2019-06-15T06:34:21.710Z,45.44
2019-06-15T06:36:51.848Z,44.57
2019-06-15T06:39:21.978Z,44.48
2019-06-15T06:41:52.111Z,43.97
2019-06-15T06:44:22.282Z,43.00
2019-06-15T06:46:52.445Z,43.00
2019-06-15T06:49:22.597Z,43.44
2019-06-15T06:51:52.724Z,42.64
2019-06-15T06:54:22.886Z,41.85
2019-06-15T06:56:53.036Z,41.56
2019-06-15T06:59:23.352Z,42.03
2019-06-15T07:01:53.464Z,40.79
2019-06-15T07:04:23.662Z,41.45
2019-06-15T07:06:53.817Z,39.96
2019-06-15T07:09:23.955Z,40.16
2019-06-15T07:11:54.113Z,40.22
2019-06-15T07:14:24.324Z,39.18
2019-06-15T07:16:54.478Z,39.42
2019-06-15T07:19:24.624Z,38.40
2019-06-15T07:21:54.741Z,37.95
2019-06-15T07:24:24.890Z,37.35
2019-06-15T07:26:55.074Z,37.50
2019-06-15T07:29:25.318Z,37.77
2019-06-15T07:31:56.908Z,37.38
2019-06-15T07:34:27.039Z,36.62
2019-06-15T07:36:57.212Z,36.39
2019-06-15T07:39:27.340Z,36.58
2019-06-15T07:41:57.549Z,36.90
2019-06-15T07:44:27.678Z,35.71
2019-06-15T07:46:57.904Z,36.37
2019-06-15T07:49:28.016Z,36.14
2019-06-15T07:51:58.658Z,35.22
2019-06-15T07:54:28.789Z,35.43
2019-06-15T07:56:58.927Z,35.00
2019-06-15T07:59:29.078Z,35.10
2019-06-15T08:01:59.933Z,34.65
2019-06-15T08:04:30.126Z,35.50
2019-06-15T08:07:00.250Z,34.28
2019-06-15T08:09:30.476Z,35.25
2019-06-15T08:12:00.590Z,34.32
2019-06-15T08:14:31.019Z,34.07
2019-06-15T08:17:01.359Z,34.57
2019-06-15T08:19:31.495Z,35.15
2019-06-15T08:22:01.632Z,33.49
2019-06-15T08:24:31.799Z,34.11
2019-06-15T08:27:01.940Z,32.45
2019-06-15T08:29:33.146Z,32.20
2019-06-15T08:32:03.514Z,32.04
2019-06-15T08:34:33.679Z,32.13
2019-06-15T08:37:03.805Z,30.71
2019-06-15T08:39:34.294Z,31.30
2019-06-15T08:42:05.800Z,31.47
2019-06-15T08:44:35.979Z,31.52
2019-06-15T08:47:06.222Z,31.13
2019-06-15T08:49:36.357Z,30.07
2019-06-15T08:52:06.468Z,28.74
2019-06-15T08:54:36.594Z,29.67
2019-06-15T08:57:06.716Z,29.39
2019-06-15T08:59:36.839Z,29.36
2019-06-15T09:02:06.953Z,29.14
2019-06-15T09:04:37.081Z,27.43
2019-06-15T09:07:07.200Z,26.61
2019-06-15T09:09:37.329Z,27.08
2019-06-15T09:12:07.456Z,27.62
2019-06-15T09:14:37.611Z,28.50
2019-06-15T09:17:07.743Z,29.48
2019-06-15T09:19:38.074Z,29.21
2019-06-15T09:22:08.224Z,29.92
2019-06-15T09:24:38.358Z,30.77
2019-06-15T09:27:08.558Z,29.99
2019-06-15T09:29:38.651Z,30.60
2019-06-15T09:32:08.776Z,30.69
2019-06-15T09:34:38.927Z,31.02
2019-06-15T09:37:09.424Z,30.48
2019-06-15T09:39:39.594Z,30.50
2019-06-15T09:42:09.721Z,30.31
2019-06-15T09:44:39.881Z,30.20
2019-06-15T09:47:10.435Z,30.05
2019-06-15T09:49:40.574Z,29.71
2019-06-15T09:52:10.720Z,29.08
2019-06-15T09:54:40.831Z,29.21
2019-06-15T09:57:10.965Z,28.90
2019-06-15T09:59:42.176Z,28.74
2019-06-15T10:02:12.315Z,29.55
2019-06-15T10:04:42.549Z,29.70
2019-06-15T10:07:13.758Z,29.31
2019-06-15T10:09:43.890Z,29.80
2019-06-15T10:12:14.018Z,29.25
2019-06-15T10:14:44.200Z,28.68
2019-06-15T10:17:14.328Z,29.62
2019-06-15T10:19:44.484Z,29.28
2019-06-15T10:22:14.615Z,29.44
2019-06-15T10:24:44.744Z,29.06
2019-06-15T10:27:16.015Z,29.64
2019-06-15T10:29:46.174Z,29.85
2019-06-15T10:32:16.292Z,29.75
2019-06-15T10:34:46.444Z,29.19
2019-06-15T10:37:16.592Z,29.99
2019-06-15T10:39:46.707Z,30.56
2019-06-15T10:42:16.844Z,29.96
2019-06-15T10:44:46.984Z,29.54
2019-06-15T10:47:17.152Z,30.39
2019-06-15T10:49:47.279Z,30.49
2019-06-15T10:52:17.415Z,31.30
2019-06-15T10:54:47.548Z,30.63
2019-06-15T10:57:18.572Z,29.83
2019-06-15T10:59:57.184Z,29.59
2019-06-15T11:02:20.522Z,29.15
2019-06-15T11:04:50.666Z,29.60
2019-06-15T11:07:20.796Z,31.15
2019-06-15T11:09:50.935Z,31.86
2019-06-15T11:12:21.259Z,30.86
2019-06-15T11:14:51.429Z,33.17
2019-06-15T11:17:22.567Z,32.93
2019-06-15T11:19:52.706Z,32.84
2019-06-15T11:22:22.828Z,33.10
2019-06-15T11:24:52.977Z,33.60
2019-06-15T11:27:23.103Z,33.64
2019-06-15T11:29:53.662Z,34.45
2019-06-15T11:32:23.781Z,34.16
2019-06-15T11:34:53.910Z,34.02
2019-06-15T11:37:24.045Z,33.18
2019-06-15T11:39:54.167Z,33.39
2019-06-15T11:42:24.307Z,33.48
2019-06-15T11:44:54.450Z,33.63
2019-06-15T11:47:24.609Z,33.62
2019-06-15T11:49:54.752Z,34.55
2019-06-15T11:52:24.873Z,34.55
2019-06-15T11:54:55.012Z,34.89
2019-06-15T11:57:25.141Z,34.88
2019-06-15T11:59:55.377Z,35.26
2019-06-15T12:02:25.546Z,35.87
2019-06-15T12:04:58.674Z,36.11
2019-06-15T12:07:27.529Z,36.17
2019-06-15T12:09:57.710Z,36.58
2019-06-15T12:12:27.819Z,37.50
2019-06-15T12:14:59.032Z,36.95
2019-06-15T12:17:29.172Z,36.87
2019-06-15T12:19:59.295Z,36.56
2019-06-15T12:22:29.429Z,37.47
2019-06-15T12:24:59.560Z,37.92
2019-06-15T12:27:29.692Z,37.72
2019-06-15T12:29:59.828Z,37.17
2019-06-15T12:32:29.958Z,37.41
2019-06-15T12:35:00.100Z,36.31
2019-06-15T12:37:31.307Z,36.61
2019-06-15T12:40:01.464Z,36.54
2019-06-15T12:42:31.585Z,35.88
2019-06-15T12:45:01.788Z,35.90
2019-06-15T12:47:32.136Z,36.01
2019-06-15T12:50:03.346Z,36.21
2019-06-15T12:52:33.507Z,36.49
2019-06-15T12:55:03.619Z,36.49
2019-06-15T12:57:33.751Z,36.42
2019-06-15T13:00:04.014Z,37.11
2019-06-15T13:02:34.603Z,35.89
2019-06-15T13:05:05.002Z,35.86
2019-06-15T13:07:35.140Z,35.77
2019-06-15T13:10:05.908Z,35.93
2019-06-15T13:12:36.048Z,35.62
2019-06-15T13:15:06.773Z,35.77
2019-06-15T13:17:37.882Z,35.69
2019-06-15T13:20:09.122Z,36.03
2019-06-15T13:22:39.390Z,35.64
2019-06-15T13:25:09.588Z,35.33
2019-06-15T13:27:39.720Z,35.85
2019-06-15T13:30:15.703Z,35.94
2019-06-15T13:32:45.832Z,36.23
2019-06-15T13:35:17.500Z,36.68
2019-06-15T13:37:47.587Z,35.87
2019-06-15T13:40:17.869Z,35.89
2019-06-15T13:42:47.980Z,36.23
2019-06-15T13:45:18.400Z,36.40
2019-06-15T13:47:48.585Z,35.98
2019-06-15T13:50:19.130Z,35.92
2019-06-15T13:52:49.239Z,36.29
2019-06-15T13:55:21.877Z,36.03
2019-06-15T13:57:51.239Z,35.85
2019-06-15T14:00:21.712Z,35.92
2019-06-15T14:02:51.849Z,36.80
2019-06-15T14:05:21.962Z,36.76
2019-06-15T14:07:52.083Z,37.13
2019-06-15T14:10:22.233Z,36.62
2019-06-15T14:12:52.347Z,37.30
2019-06-15T14:15:22.509Z,36.98
2019-06-15T14:17:52.611Z,36.54
2019-06-15T14:20:22.746Z,36.24
2019-06-15T14:22:52.861Z,35.95
2019-06-15T14:25:22.996Z,36.16
2019-06-15T14:27:53.116Z,36.44
2019-06-15T14:30:23.412Z,36.51
2019-06-15T14:32:53.691Z,36.08
2019-06-15T14:35:23.789Z,35.71
2019-06-15T14:37:53.901Z,35.56
2019-06-15T14:40:24.036Z,35.74
2019-06-15T14:42:54.156Z,36.19
2019-06-15T14:45:24.305Z,35.85
2019-06-15T14:47:54.467Z,36.17
2019-06-15T14:50:24.600Z,36.30
2019-06-15T14:52:54.735Z,36.42
2019-06-15T14:55:26.237Z,36.58
2019-06-15T14:57:56.453Z,36.84
2019-06-15T15:00:26.588Z,37.11
2019-06-15T15:02:56.715Z,37.21
2019-06-15T15:05:27.545Z,36.94
2019-06-15T15:07:57.832Z,37.15
2019-06-15T15:10:27.955Z,37.25
2019-06-15T15:12:58.076Z,37.02
2019-06-15T15:15:28.223Z,37.17
2019-06-15T15:17:58.328Z,37.05
2019-06-15T15:20:28.463Z,36.63
2019-06-15T15:22:58.607Z,36.75
2019-06-15T15:25:31.019Z,36.71
2019-06-15T15:28:00.649Z,37.27
2019-06-15T15:30:40.481Z,37.05
2019-06-15T15:33:11.593Z,37.49
2019-06-15T15:35:41.745Z,37.61
2019-06-15T15:38:11.885Z,37.61
2019-06-15T15:40:42.021Z,37.60
2019-06-15T15:43:12.156Z,37.79
2019-06-15T15:45:42.684Z,37.10
2019-06-15T15:48:12.833Z,37.67
2019-06-15T15:50:42.977Z,37.46
2019-06-15T15:53:13.097Z,37.63
2019-06-15T15:55:43.221Z,36.97
2019-06-15T15:58:13.327Z,37.54
2019-06-15T16:00:43.468Z,37.54
2019-06-15T16:03:15.870Z,37.33
2019-06-15T16:05:47.213Z,36.73
2019-06-15T16:08:17.247Z,36.59
2019-06-15T16:10:47.446Z,36.81
2019-06-15T16:13:17.612Z,36.94
2019-06-15T16:15:47.748Z,36.45
2019-06-15T16:18:17.867Z,36.57
2019-06-15T16:20:48.011Z,36.08
2019-06-15T16:23:18.205Z,36.27
2019-06-15T16:25:49.179Z,36.61
2019-06-15T16:28:19.261Z,36.23
2019-06-15T16:31:05.313Z,36.79
2019-06-15T16:33:21.222Z,36.79
2019-06-15T16:35:51.371Z,36.10
2019-06-15T16:38:21.488Z,35.35
2019-06-15T16:40:51.632Z,35.16
2019-06-15T16:43:25.228Z,35.36
2019-06-15T16:45:53.602Z,35.60
2019-06-15T16:48:25.951Z,35.60
2019-06-15T16:50:57.759Z,35.46
2019-06-15T16:53:27.492Z,35.40
2019-06-15T16:55:57.627Z,35.39
2019-06-15T16:58:27.757Z,35.38
2019-06-15T17:00:57.892Z,35.38
2019-06-15T17:03:29.514Z,35.14
2019-06-15T17:06:03.497Z,35.14
2019-06-15T17:08:32.818Z,35.66
2019-06-15T17:11:02.951Z,36.00
2019-06-15T17:13:33.073Z,36.61
2019-06-15T17:16:03.251Z,37.46
2019-06-15T17:18:33.417Z,37.54
2019-06-15T17:21:03.555Z,37.47
2019-06-15T17:23:33.691Z,37.59
2019-06-15T17:26:06.291Z,37.63
2019-06-15T17:28:36.940Z,37.49
2019-06-15T17:31:07.313Z,37.44
2019-06-15T17:33:38.554Z,37.54
2019-06-15T17:36:08.866Z,37.83
2019-06-15T17:38:39.016Z,38.82
2019-06-15T17:41:09.203Z,37.42
2019-06-15T17:43:39.363Z,36.73
2019-06-15T17:46:09.493Z,36.06
2019-06-15T17:48:39.654Z,35.35
2019-06-15T17:51:10.880Z,34.76
2019-06-15T17:53:41.022Z,34.25
2019-06-15T17:56:11.172Z,33.33
2019-06-15T17:58:41.315Z,33.66
2019-06-15T18:01:11.463Z,33.59
2019-06-15T18:03:53.934Z,33.80
2019-06-15T18:06:13.481Z,33.66
2019-06-15T18:08:43.613Z,33.52
2019-06-15T18:11:16.771Z,33.81
2019-06-15T18:13:47.387Z,34.37
2019-06-15T18:16:17.573Z,34.10
2019-06-15T18:18:47.687Z,34.20
2019-06-15T18:21:17.833Z,34.45
2019-06-15T18:23:48.935Z,34.83
2019-06-15T18:26:19.080Z,34.29
2019-06-15T18:28:49.225Z,34.48
2019-06-15T18:31:19.425Z,34.54
2019-06-15T18:33:49.576Z,34.19
2019-06-15T18:36:19.697Z,34.83
2019-06-15T18:38:49.820Z,34.98
2019-06-15T18:41:19.967Z,35.22
2019-06-15T18:43:50.094Z,35.33
2019-06-15T18:46:21.290Z,35.38
2019-06-15T18:48:51.453Z,35.47
2019-06-15T18:51:21.614Z,35.61
2019-06-15T18:53:51.751Z,35.66
2019-06-15T18:56:21.893Z,35.78
2019-06-15T18:58:52.037Z,35.81
2019-06-15T19:01:22.208Z,35.83
2019-06-15T19:03:56.225Z,36.37
2019-06-15T19:06:26.420Z,36.34
2019-06-15T19:08:57.477Z,36.32
2019-06-15T19:11:27.767Z,36.16
2019-06-15T19:13:57.888Z,36.25
2019-06-15T19:16:28.023Z,36.46
2019-06-15T19:18:58.170Z,37.47
2019-06-15T19:21:28.375Z,37.80
2019-06-15T19:23:58.509Z,37.82
2019-06-15T19:26:28.636Z,37.53
2019-06-15T19:28:58.771Z,37.48
2019-06-15T19:31:29.151Z,37.59
2019-06-15T19:33:59.288Z,37.02
2019-06-15T19:36:29.447Z,36.89
2019-06-15T19:38:59.575Z,36.97
2019-06-15T19:41:29.731Z,37.34
2019-06-15T19:43:59.872Z,37.75
2019-06-15T19:46:30.020Z,37.58
2019-06-15T19:49:00.212Z,37.70
2019-06-15T19:51:30.341Z,38.31
2019-06-15T19:54:00.478Z,38.37
2019-06-15T19:56:30.677Z,38.54
2019-06-15T19:59:00.850Z,39.32
2019-06-15T20:01:30.997Z,39.77
2019-06-15T20:04:01.202Z,39.85
2019-06-15T20:06:32.393Z,40.19
2019-06-15T20:09:02.525Z,40.84
2019-06-15T20:11:36.738Z,40.26
2019-06-15T20:14:07.157Z,41.26
2019-06-15T20:16:37.390Z,40.67
2019-06-15T20:19:07.530Z,40.88
2019-06-15T20:21:37.683Z,40.91
2019-06-15T20:24:07.820Z,40.82
2019-06-15T20:26:38.079Z,41.14
2019-06-15T20:29:08.207Z,41.82
2019-06-15T20:31:38.387Z,41.85
2019-06-15T20:34:09.584Z,42.06
2019-06-15T20:36:39.777Z,42.03
2019-06-15T20:39:11.091Z,42.25
2019-06-15T20:41:41.917Z,42.56
2019-06-15T20:44:12.066Z,42.42
2019-06-15T20:46:42.195Z,42.53
2019-06-15T20:49:13.299Z,42.67
2019-06-15T20:51:45.851Z,42.99
2019-06-15T20:54:16.808Z,43.19
2019-06-15T20:56:48.234Z,43.37
2019-06-15T20:59:20.095Z,43.41
2019-06-15T21:01:50.319Z,43.53
2019-06-15T21:04:20.472Z,43.56
2019-06-15T21:06:50.631Z,43.81
2019-06-15T21:09:21.097Z,43.95
2019-06-15T21:11:51.294Z,44.02
2019-06-15T21:14:21.675Z,44.41
2019-06-15T21:16:51.829Z,44.42
2019-06-15T21:19:22.182Z,44.64
2019-06-15T21:21:52.425Z,44.98
2019-06-15T21:24:22.612Z,46.02
2019-06-15T21:26:52.748Z,46.41
2019-06-15T21:29:22.873Z,46.53
2019-06-15T21:31:53.024Z,46.56
2019-06-15T21:34:23.151Z,46.19
2019-06-15T21:36:53.331Z,46.35
2019-06-15T21:39:23.522Z,46.24
2019-06-15T21:41:53.667Z,46.28
2019-06-15T21:44:26.381Z,46.80
2019-06-15T21:46:56.273Z,46.86
2019-06-15T21:49:26.656Z,47.17
2019-06-15T21:51:56.786Z,47.25
2019-06-15T21:54:27.067Z,47.26
2019-06-15T21:56:57.238Z,47.13
2019-06-15T21:59:31.796Z,47.07
2019-06-15T22:02:02.240Z,47.14
2019-06-15T22:04:33.901Z,48.14
2019-06-15T22:07:06.244Z,48.79
2019-06-15T22:09:37.204Z,49.14
2019-06-15T22:12:08.546Z,49.07
2019-06-15T22:14:38.753Z,49.03
2019-06-15T22:17:09.009Z,48.99
2019-06-15T22:19:39.164Z,49.70
2019-06-15T22:22:09.328Z,50.02
2019-06-15T22:24:39.461Z,50.56
2019-06-15T22:27:09.721Z,50.94
2019-06-15T22:29:39.918Z,50.76
2019-06-15T22:32:10.275Z,50.81
2019-06-15T22:34:46.925Z,50.54
2019-06-15T22:37:17.330Z,50.36
2019-06-15T22:39:47.672Z,50.27
2019-06-15T22:42:18.079Z,50.04
2019-06-15T22:44:48.275Z,50.18
2019-06-15T22:47:18.399Z,50.36
2019-06-15T22:49:48.547Z,50.63
2019-06-15T22:52:18.673Z,51.18
2019-06-15T22:54:48.807Z,51.56
2019-06-15T22:57:18.968Z,51.51
2019-06-15T22:59:49.102Z,51.90
2019-06-15T23:02:19.240Z,51.56
2019-06-15T23:04:49.378Z,51.61
2019-06-15T23:07:19.508Z,51.42
2019-06-15T23:09:49.642Z,51.36
2019-06-15T23:12:20.811Z,51.15
2019-06-15T23:14:50.941Z,51.36
2019-06-15T23:17:21.065Z,51.83
2019-06-15T23:19:51.205Z,52.09
2019-06-15T23:22:21.338Z,52.20
2019-06-15T23:24:51.456Z,52.52
2019-06-15T23:27:21.739Z,52.90
2019-06-15T23:29:51.864Z,52.73
2019-06-15T23:32:22.004Z,52.79
2019-06-15T23:34:52.132Z,52.68
2019-06-15T23:37:23.045Z,52.99
2019-06-15T23:40:10.753Z,53.73
2019-06-15T23:42:40.843Z,53.80
2019-06-15T23:45:11.282Z,53.82
2019-06-15T23:47:42.484Z,53.38
2019-06-15T23:50:12.613Z,53.01
2019-06-15T23:52:42.764Z,53.10
2019-06-15T23:55:14.331Z,53.29
2019-06-15T23:57:46.570Z,53.33
